sensor_id;sensor_type;location;lat;lon;timestamp;pressure;altitude;pressure_sealevel;temperature;humidity
44027;BME280;29696;55.698;37.460;2023-03-16T00:00:05;99093.22;;;3.74;70.86
44027;BME280;29696;55.698;37.460;2023-03-16T00:02:34;99083.41;;;3.78;71.31
44027;BME280;29696;55.698;37.460;2023-03-16T00:05:00;99082.34;;;3.80;71.49
44027;BME280;29696;55.698;37.460;2023-03-16T00:07:28;99076.78;;;3.85;71.39
44027;BME280;29696;55.698;37.460;2023-03-16T00:09:55;99082.66;;;3.88;71.57
44027;BME280;29696;55.698;37.460;2023-03-16T00:12:21;99071.03;;;3.80;71.56
44027;BME280;29696;55.698;37.460;2023-03-16T00:14:48;99065.09;;;3.78;72.20
44027;BME280;29696;55.698;37.460;2023-03-16T00:17:16;99065.81;;;3.80;72.56
44027;BME280;29696;55.698;37.460;2023-03-16T00:19:48;99060.72;;;3.78;72.21
44027;BME280;29696;55.698;37.460;2023-03-16T00:22:16;99055.34;;;3.80;72.29
44027;BME280;29696;55.698;37.460;2023-03-16T00:24:43;99048.59;;;3.77;72.42
44027;BME280;29696;55.698;37.460;2023-03-16T00:27:11;99053.19;;;3.86;72.13
44027;BME280;29696;55.698;37.460;2023-03-16T00:29:41;99054.00;;;3.87;72.20
44027;BME280;29696;55.698;37.460;2023-03-16T00:32:17;99063.84;;;3.96;72.18
44027;BME280;29696;55.698;37.460;2023-03-16T00:34:44;99075.03;;;3.98;71.82
44027;BME280;29696;55.698;37.460;2023-03-16T00:37:12;99076.78;;;3.98;71.61
44027;BME280;29696;55.698;37.460;2023-03-16T00:39:41;99070.00;;;3.95;71.69
44027;BME280;29696;55.698;37.460;2023-03-16T00:42:09;99075.25;;;3.95;72.02
44027;BME280;29696;55.698;37.460;2023-03-16T00:44:36;99068.31;;;3.94;72.12
44027;BME280;29696;55.698;37.460;2023-03-16T00:47:03;99074.38;;;3.95;72.27
44027;BME280;29696;55.698;37.460;2023-03-16T00:49:30;99071.88;;;3.93;72.70
44027;BME280;29696;55.698;37.460;2023-03-16T00:52:01;99064.25;;;3.90;72.63
44027;BME280;29696;55.698;37.460;2023-03-16T00:54:28;99066.31;;;3.98;72.80
44027;BME280;29696;55.698;37.460;2023-03-16T00:56:54;99070.22;;;3.92;72.71
44027;BME280;29696;55.698;37.460;2023-03-16T00:59:21;99070.75;;;3.84;73.41
44027;BME280;29696;55.698;37.460;2023-03-16T01:01:47;99074.72;;;3.77;73.80
44027;BME280;29696;55.698;37.460;2023-03-16T01:04:13;99065.72;;;3.69;74.38
44027;BME280;29696;55.698;37.460;2023-03-16T01:06:40;99058.81;;;3.67;75.16
44027;BME280;29696;55.698;37.460;2023-03-16T01:09:06;99065.00;;;3.66;75.11
44027;BME280;29696;55.698;37.460;2023-03-16T01:11:34;99078.78;;;3.69;75.25
44027;BME280;29696;55.698;37.460;2023-03-16T01:14:00;99068.34;;;3.69;75.31
44027;BME280;29696;55.698;37.460;2023-03-16T01:16:27;99069.25;;;3.67;75.30
44027;BME280;29696;55.698;37.460;2023-03-16T01:18:54;99082.13;;;3.71;75.27
44027;BME280;29696;55.698;37.460;2023-03-16T01:21:22;99079.28;;;3.74;75.67
44027;BME280;29696;55.698;37.460;2023-03-16T01:23:49;99079.94;;;3.77;75.39
44027;BME280;29696;55.698;37.460;2023-03-16T01:26:19;99083.06;;;3.82;75.32
44027;BME280;29696;55.698;37.460;2023-03-16T01:28:47;99072.94;;;3.78;74.89
44027;BME280;29696;55.698;37.460;2023-03-16T01:31:14;99079.84;;;3.79;74.93
44027;BME280;29696;55.698;37.460;2023-03-16T01:33:42;99088.72;;;3.76;74.97
44027;BME280;29696;55.698;37.460;2023-03-16T01:36:16;99085.47;;;3.73;75.18
44027;BME280;29696;55.698;37.460;2023-03-16T01:38:53;99090.16;;;3.67;75.23
44027;BME280;29696;55.698;37.460;2023-03-16T01:41:20;99070.84;;;3.57;75.53
44027;BME280;29696;55.698;37.460;2023-03-16T01:43:47;99079.72;;;3.55;75.88
44027;BME280;29696;55.698;37.460;2023-03-16T01:46:17;99079.63;;;3.56;75.89
44027;BME280;29696;55.698;37.460;2023-03-16T01:49:21;99084.75;;;3.58;76.49
44027;BME280;29696;55.698;37.460;2023-03-16T01:51:55;99075.94;;;3.46;76.63
44027;BME280;29696;55.698;37.460;2023-03-16T01:54:35;99075.41;;;3.41;76.81
44027;BME280;29696;55.698;37.460;2023-03-16T01:57:12;99080.63;;;3.41;77.28
44027;BME280;29696;55.698;37.460;2023-03-16T02:00:00;99080.25;;;3.47;77.40
44027;BME280;29696;55.698;37.460;2023-03-16T02:02:56;99076.28;;;3.41;76.75
44027;BME280;29696;55.698;37.460;2023-03-16T02:05:40;99080.00;;;3.37;76.38
44027;BME280;29696;55.698;37.460;2023-03-16T02:08:10;99080.31;;;3.33;76.93
44027;BME280;29696;55.698;37.460;2023-03-16T02:10:38;99083.97;;;3.30;77.26
44027;BME280;29696;55.698;37.460;2023-03-16T02:13:06;99082.19;;;3.31;77.19
44027;BME280;29696;55.698;37.460;2023-03-16T02:15:33;99090.84;;;3.31;77.37
44027;BME280;29696;55.698;37.460;2023-03-16T02:18:01;99082.72;;;3.36;77.21
44027;BME280;29696;55.698;37.460;2023-03-16T02:21:04;99087.69;;;3.53;77.41
44027;BME280;29696;55.698;37.460;2023-03-16T02:23:32;99079.31;;;3.48;77.14
44027;BME280;29696;55.698;37.460;2023-03-16T02:26:33;99091.53;;;3.60;76.79
44027;BME280;29696;55.698;37.460;2023-03-16T02:29:28;99075.84;;;3.60;76.59
44027;BME280;29696;55.698;37.460;2023-03-16T02:31:57;99079.50;;;3.45;76.23
44027;BME280;29696;55.698;37.460;2023-03-16T02:34:25;99085.56;;;3.46;76.64
44027;BME280;29696;55.698;37.460;2023-03-16T02:36:53;99083.91;;;3.45;76.95
44027;BME280;29696;55.698;37.460;2023-03-16T02:39:23;99075.75;;;3.49;76.89
44027;BME280;29696;55.698;37.460;2023-03-16T02:41:50;99073.66;;;3.54;76.87
44027;BME280;29696;55.698;37.460;2023-03-16T02:44:22;99080.97;;;3.62;76.36
44027;BME280;29696;55.698;37.460;2023-03-16T02:46:54;99070.72;;;3.59;76.37
44027;BME280;29696;55.698;37.460;2023-03-16T02:49:29;99064.25;;;3.64;76.58
44027;BME280;29696;55.698;37.460;2023-03-16T02:51:58;99067.91;;;3.62;76.20
44027;BME280;29696;55.698;37.460;2023-03-16T02:54:25;99062.59;;;3.63;76.03
44027;BME280;29696;55.698;37.460;2023-03-16T02:56:52;99057.38;;;3.63;76.11
44027;BME280;29696;55.698;37.460;2023-03-16T02:59:19;99055.50;;;3.65;75.95
44027;BME280;29696;55.698;37.460;2023-03-16T03:01:45;99059.69;;;3.68;75.78
44027;BME280;29696;55.698;37.460;2023-03-16T03:04:12;99066.78;;;3.66;75.83
44027;BME280;29696;55.698;37.460;2023-03-16T03:06:39;99071.59;;;3.59;76.15
44027;BME280;29696;55.698;37.460;2023-03-16T03:09:07;99068.22;;;3.57;76.50
44027;BME280;29696;55.698;37.460;2023-03-16T03:11:33;99054.00;;;3.49;76.58
44027;BME280;29696;55.698;37.460;2023-03-16T03:14:00;99059.34;;;3.47;76.62
44027;BME280;29696;55.698;37.460;2023-03-16T03:16:27;99056.22;;;3.42;77.11
44027;BME280;29696;55.698;37.460;2023-03-16T03:18:55;99046.69;;;3.41;77.35
44027;BME280;29696;55.698;37.460;2023-03-16T03:21:23;99058.63;;;3.45;77.73
44027;BME280;29696;55.698;37.460;2023-03-16T03:23:50;99060.59;;;3.54;77.71
44027;BME280;29696;55.698;37.460;2023-03-16T03:26:16;99063.94;;;3.56;77.17
44027;BME280;29696;55.698;37.460;2023-03-16T03:28:44;99058.41;;;3.61;77.16
44027;BME280;29696;55.698;37.460;2023-03-16T03:31:18;99057.56;;;3.73;77.15
44027;BME280;29696;55.698;37.460;2023-03-16T03:33:44;99048.06;;;3.72;76.63
44027;BME280;29696;55.698;37.460;2023-03-16T03:36:11;99039.41;;;3.72;76.22
44027;BME280;29696;55.698;37.460;2023-03-16T03:38:39;99044.19;;;3.78;76.42
44027;BME280;29696;55.698;37.460;2023-03-16T03:41:07;99049.84;;;3.84;76.08
44027;BME280;29696;55.698;37.460;2023-03-16T03:43:35;99038.97;;;3.78;75.94
44027;BME280;29696;55.698;37.460;2023-03-16T03:46:03;99050.47;;;3.75;76.16
44027;BME280;29696;55.698;37.460;2023-03-16T03:48:32;99047.53;;;3.67;76.17
44027;BME280;29696;55.698;37.460;2023-03-16T03:50:59;99047.00;;;3.62;76.63
44027;BME280;29696;55.698;37.460;2023-03-16T03:53:52;99052.44;;;3.59;77.06
44027;BME280;29696;55.698;37.460;2023-03-16T03:56:37;99052.25;;;3.75;77.46
44027;BME280;29696;55.698;37.460;2023-03-16T03:59:08;99054.75;;;3.63;77.58
44027;BME280;29696;55.698;37.460;2023-03-16T04:01:53;99057.78;;;3.70;77.65
44027;BME280;29696;55.698;37.460;2023-03-16T04:04:21;99057.78;;;3.70;76.98
44027;BME280;29696;55.698;37.460;2023-03-16T04:06:48;99049.44;;;3.65;76.39
44027;BME280;29696;55.698;37.460;2023-03-16T04:09:16;99061.44;;;3.67;76.65
44027;BME280;29696;55.698;37.460;2023-03-16T04:11:44;99052.13;;;3.63;76.76
44027;BME280;29696;55.698;37.460;2023-03-16T04:14:10;99043.88;;;3.57;76.91
44027;BME280;29696;55.698;37.460;2023-03-16T04:16:38;99049.63;;;3.49;77.16
44027;BME280;29696;55.698;37.460;2023-03-16T04:19:05;99052.66;;;3.43;77.72
44027;BME280;29696;55.698;37.460;2023-03-16T04:21:31;99049.28;;;3.41;78.05
44027;BME280;29696;55.698;37.460;2023-03-16T04:23:57;99047.63;;;3.40;78.04
44027;BME280;29696;55.698;37.460;2023-03-16T04:26:31;99046.06;;;3.37;78.30
44027;BME280;29696;55.698;37.460;2023-03-16T04:28:59;99043.16;;;3.29;78.16
44027;BME280;29696;55.698;37.460;2023-03-16T04:31:27;99055.13;;;3.32;78.27
44027;BME280;29696;55.698;37.460;2023-03-16T04:33:54;99062.97;;;3.32;78.39
44027;BME280;29696;55.698;37.460;2023-03-16T04:36:21;99066.31;;;3.34;78.71
44027;BME280;29696;55.698;37.460;2023-03-16T04:38:51;99059.94;;;3.38;78.75
44027;BME280;29696;55.698;37.460;2023-03-16T04:41:18;99060.59;;;3.41;78.54
44027;BME280;29696;55.698;37.460;2023-03-16T04:43:54;99064.03;;;3.42;78.18
44027;BME280;29696;55.698;37.460;2023-03-16T04:46:25;99071.75;;;3.43;78.33
44027;BME280;29696;55.698;37.460;2023-03-16T04:48:53;99071.66;;;3.45;78.42
44027;BME280;29696;55.698;37.460;2023-03-16T04:51:24;99068.94;;;3.47;78.34
44027;BME280;29696;55.698;37.460;2023-03-16T04:54:03;99085.47;;;3.47;78.21
44027;BME280;29696;55.698;37.460;2023-03-16T04:56:34;99081.72;;;3.51;78.70
44027;BME280;29696;55.698;37.460;2023-03-16T04:59:04;99085.06;;;3.53;78.60
44027;BME280;29696;55.698;37.460;2023-03-16T05:01:43;99093.41;;;3.58;77.88
44027;BME280;29696;55.698;37.460;2023-03-16T05:04:11;99097.72;;;3.59;77.73
44027;BME280;29696;55.698;37.460;2023-03-16T05:06:38;99094.69;;;3.65;77.77
44027;BME280;29696;55.698;37.460;2023-03-16T05:09:06;99096.34;;;3.66;77.21
44027;BME280;29696;55.698;37.460;2023-03-16T05:11:36;99091.41;;;3.62;76.98
44027;BME280;29696;55.698;37.460;2023-03-16T05:14:06;99098.00;;;3.55;77.29
44027;BME280;29696;55.698;37.460;2023-03-16T05:16:40;99100.41;;;3.58;77.75
44027;BME280;29696;55.698;37.460;2023-03-16T05:19:07;99095.50;;;3.66;77.78
44027;BME280;29696;55.698;37.460;2023-03-16T05:21:35;99094.69;;;3.65;77.16
44027;BME280;29696;55.698;37.460;2023-03-16T05:24:06;99093.31;;;3.60;77.22
44027;BME280;29696;55.698;37.460;2023-03-16T05:26:33;99098.00;;;3.55;77.22
44027;BME280;29696;55.698;37.460;2023-03-16T05:29:00;99099.38;;;3.48;77.45
44027;BME280;29696;55.698;37.460;2023-03-16T05:31:29;99094.34;;;3.45;78.35
44027;BME280;29696;55.698;37.460;2023-03-16T05:34:01;99086.81;;;3.40;78.40
44027;BME280;29696;55.698;37.460;2023-03-16T05:36:28;99092.56;;;3.45;78.58
44027;BME280;29696;55.698;37.460;2023-03-16T05:39:00;99094.13;;;3.48;78.54
44027;BME280;29696;55.698;37.460;2023-03-16T05:41:36;99096.63;;;3.49;78.40
44027;BME280;29696;55.698;37.460;2023-03-16T05:44:22;99100.41;;;3.58;78.56
44027;BME280;29696;55.698;37.460;2023-03-16T05:47:02;99091.41;;;3.62;77.99
44027;BME280;29696;55.698;37.460;2023-03-16T05:49:30;99083.41;;;3.65;78.30
44027;BME280;29696;55.698;37.460;2023-03-16T05:51:58;99096.25;;;3.68;77.56
44027;BME280;29696;55.698;37.460;2023-03-16T05:54:24;99110.78;;;3.72;77.51
44027;BME280;29696;55.698;37.460;2023-03-16T05:56:50;99095.84;;;3.74;77.49
44027;BME280;29696;55.698;37.460;2023-03-16T05:59:17;99095.31;;;3.82;76.83
44027;BME280;29696;55.698;37.460;2023-03-16T06:01:45;99106.50;;;3.84;76.83
44027;BME280;29696;55.698;37.460;2023-03-16T06:04:12;99097.00;;;3.83;76.86
44027;BME280;29696;55.698;37.460;2023-03-16T06:06:40;99094.25;;;3.84;76.83
44027;BME280;29696;55.698;37.460;2023-03-16T06:09:17;99102.00;;;3.86;77.03
44027;BME280;29696;55.698;37.460;2023-03-16T06:11:43;99103.25;;;3.93;77.44
44027;BME280;29696;55.698;37.460;2023-03-16T06:14:10;99106.28;;;4.00;77.46
44027;BME280;29696;55.698;37.460;2023-03-16T06:16:36;99112.13;;;4.03;76.66
44027;BME280;29696;55.698;37.460;2023-03-16T06:19:03;99115.06;;;4.11;76.19
44027;BME280;29696;55.698;37.460;2023-03-16T06:21:31;99129.59;;;4.16;75.71
44027;BME280;29696;55.698;37.460;2023-03-16T06:24:04;99132.94;;;4.18;75.82
44027;BME280;29696;55.698;37.460;2023-03-16T06:26:32;99134.38;;;4.22;75.70
44027;BME280;29696;55.698;37.460;2023-03-16T06:28:59;99143.72;;;4.26;76.23
44027;BME280;29696;55.698;37.460;2023-03-16T06:31:26;99139.31;;;4.26;75.24
44027;BME280;29696;55.698;37.460;2023-03-16T06:33:52;99138.78;;;4.21;74.72
44027;BME280;29696;55.698;37.460;2023-03-16T06:36:19;99137.22;;;4.19;75.15
44027;BME280;29696;55.698;37.460;2023-03-16T06:38:51;99129.59;;;4.16;75.42
44027;BME280;29696;55.698;37.460;2023-03-16T06:41:27;99133.56;;;4.21;75.28
44027;BME280;29696;55.698;37.460;2023-03-16T06:43:54;99129.28;;;4.20;75.19
44027;BME280;29696;55.698;37.460;2023-03-16T06:46:20;99123.41;;;4.29;75.12
44027;BME280;29696;55.698;37.460;2023-03-16T06:48:47;99119.56;;;4.22;74.54
44027;BME280;29696;55.698;37.460;2023-03-16T06:51:14;99119.88;;;4.18;74.69
44027;BME280;29696;55.698;37.460;2023-03-16T06:53:40;99129.69;;;4.27;75.40
44027;BME280;29696;55.698;37.460;2023-03-16T06:56:07;99118.56;;;4.36;75.36
44027;BME280;29696;55.698;37.460;2023-03-16T06:58:38;99125.91;;;4.44;75.01
44027;BME280;29696;55.698;37.460;2023-03-16T07:01:04;99136.75;;;4.50;75.02
44027;BME280;29696;55.698;37.460;2023-03-16T07:03:31;99129.31;;;4.57;74.50
44027;BME280;29696;55.698;37.460;2023-03-16T07:06:03;99126.25;;;4.63;74.07
44027;BME280;29696;55.698;37.460;2023-03-16T07:08:31;99128.34;;;4.71;74.32
44027;BME280;29696;55.698;37.460;2023-03-16T07:10:57;99125.28;;;4.77;73.78
44027;BME280;29696;55.698;37.460;2023-03-16T07:13:24;99132.09;;;4.79;73.67
44027;BME280;29696;55.698;37.460;2023-03-16T07:15:51;99136.28;;;4.82;73.41
44027;BME280;29696;55.698;37.460;2023-03-16T07:18:19;99130.41;;;4.78;73.58
44027;BME280;29696;55.698;37.460;2023-03-16T07:20:46;99146.22;;;4.77;73.44
44027;BME280;29696;55.698;37.460;2023-03-16T07:23:13;99141.53;;;4.69;73.28
44027;BME280;29696;55.698;37.460;2023-03-16T07:25:40;99146.66;;;4.71;73.68
44027;BME280;29696;55.698;37.460;2023-03-16T07:28:06;99131.00;;;4.58;73.02
44027;BME280;29696;55.698;37.460;2023-03-16T07:30:38;99134.75;;;4.54;73.95
44027;BME280;29696;55.698;37.460;2023-03-16T07:33:05;99128.81;;;4.52;74.04
44027;BME280;29696;55.698;37.460;2023-03-16T07:35:32;99129.00;;;4.62;75.56
44027;BME280;29696;55.698;37.460;2023-03-16T07:37:58;99124.81;;;4.59;74.71
44027;BME280;29696;55.698;37.460;2023-03-16T07:40:25;99119.06;;;4.67;75.52
44027;BME280;29696;55.698;37.460;2023-03-16T07:42:56;99118.19;;;4.79;75.37
44027;BME280;29696;55.698;37.460;2023-03-16T07:45:28;99115.28;;;4.95;74.61
44027;BME280;29696;55.698;37.460;2023-03-16T07:47:56;99115.44;;;5.04;73.68
44027;BME280;29696;55.698;37.460;2023-03-16T07:50:35;99112.66;;;5.19;73.54
44027;BME280;29696;55.698;37.460;2023-03-16T07:53:01;99111.81;;;5.18;72.30
44027;BME280;29696;55.698;37.460;2023-03-16T07:55:28;99109.81;;;5.22;72.39
44027;BME280;29696;55.698;37.460;2023-03-16T07:57:55;99110.41;;;5.25;72.33
44027;BME280;29696;55.698;37.460;2023-03-16T08:00:28;99106.56;;;5.42;72.33
44027;BME280;29696;55.698;37.460;2023-03-16T08:02:54;99107.88;;;5.59;72.20
44027;BME280;29696;55.698;37.460;2023-03-16T08:05:22;99102.56;;;5.72;71.40
44027;BME280;29696;55.698;37.460;2023-03-16T08:07:56;99107.63;;;5.86;70.76
44027;BME280;29696;55.698;37.460;2023-03-16T08:10:25;99115.94;;;5.91;70.91
44027;BME280;29696;55.698;37.460;2023-03-16T08:13:00;99121.88;;;5.82;70.39
44027;BME280;29696;55.698;37.460;2023-03-16T08:15:27;99121.78;;;5.84;71.21
44027;BME280;29696;55.698;37.460;2023-03-16T08:18:00;99129.75;;;5.82;71.77
44027;BME280;29696;55.698;37.460;2023-03-16T08:20:32;99130.25;;;5.87;71.44
44027;BME280;29696;55.698;37.460;2023-03-16T08:22:59;99132.03;;;5.87;70.93
44027;BME280;29696;55.698;37.460;2023-03-16T08:25:30;99131.22;;;5.86;70.38
44027;BME280;29696;55.698;37.460;2023-03-16T08:28:03;99127.97;;;5.83;69.92
44027;BME280;29696;55.698;37.460;2023-03-16T08:30:30;99123.56;;;5.72;69.78
44027;BME280;29696;55.698;37.460;2023-03-16T08:33:17;99123.28;;;5.64;70.38
44027;BME280;29696;55.698;37.460;2023-03-16T08:35:46;99125.06;;;5.63;70.55
44027;BME280;29696;55.698;37.460;2023-03-16T08:38:13;99129.34;;;5.64;70.78
44027;BME280;29696;55.698;37.460;2023-03-16T08:40:41;99126.63;;;5.66;71.13
44027;BME280;29696;55.698;37.460;2023-03-16T08:43:15;99130.59;;;5.71;71.34
44027;BME280;29696;55.698;37.460;2023-03-16T08:45:44;99133.06;;;5.73;71.27
44027;BME280;29696;55.698;37.460;2023-03-16T08:48:11;99132.34;;;5.71;71.69
44027;BME280;29696;55.698;37.460;2023-03-16T08:50:43;99130.22;;;5.76;71.77
44027;BME280;29696;55.698;37.460;2023-03-16T08:53:11;99140.47;;;5.79;71.33
44027;BME280;29696;55.698;37.460;2023-03-16T08:55:39;99145.84;;;5.78;71.52
44027;BME280;29696;55.698;37.460;2023-03-16T08:58:08;99139.88;;;5.76;71.41
44027;BME280;29696;55.698;37.460;2023-03-16T09:00:35;99141.06;;;5.71;71.59
44027;BME280;29696;55.698;37.460;2023-03-16T09:03:02;99127.00;;;5.72;71.97
44027;BME280;29696;55.698;37.460;2023-03-16T09:05:29;99133.44;;;5.80;71.79
44027;BME280;29696;55.698;37.460;2023-03-16T09:07:56;99133.34;;;5.81;71.77
44027;BME280;29696;55.698;37.460;2023-03-16T09:10:24;99136.56;;;5.85;71.52
44027;BME280;29696;55.698;37.460;2023-03-16T09:12:51;99134.66;;;5.87;71.65
44027;BME280;29696;55.698;37.460;2023-03-16T09:15:19;99135.25;;;5.90;71.51
44027;BME280;29696;55.698;37.460;2023-03-16T09:17:47;99136.22;;;5.89;71.88
44027;BME280;29696;55.698;37.460;2023-03-16T09:20:15;99133.38;;;5.92;71.83
44027;BME280;29696;55.698;37.460;2023-03-16T09:22:46;99129.69;;;5.95;71.82
44027;BME280;29696;55.698;37.460;2023-03-16T09:25:13;99129.34;;;6.00;71.69
44027;BME280;29696;55.698;37.460;2023-03-16T09:27:40;99119.31;;;5.93;70.95
44027;BME280;29696;55.698;37.460;2023-03-16T09:30:08;99132.97;;;5.86;70.71
44027;BME280;29696;55.698;37.460;2023-03-16T09:32:34;99137.72;;;5.69;71.58
44027;BME280;29696;55.698;37.460;2023-03-16T09:35:03;99129.84;;;5.69;72.74
44027;BME280;29696;55.698;37.460;2023-03-16T09:37:32;99128.56;;;5.75;72.97
44027;BME280;29696;55.698;37.460;2023-03-16T09:39:58;99129.50;;;5.74;72.40
44027;BME280;29696;55.698;37.460;2023-03-16T09:46:39;99130.06;;;6.02;72.78
44027;BME280;29696;55.698;37.460;2023-03-16T09:49:09;99127.88;;;5.84;72.87
44027;BME280;29696;55.698;37.460;2023-03-16T09:58:04;99132.50;;;5.81;73.18
44027;BME280;29696;55.698;37.460;2023-03-16T10:00:37;99130.34;;;5.86;73.30
44027;BME280;29696;55.698;37.460;2023-03-16T10:06:12;99134.88;;;5.72;73.83
44027;BME280;29696;55.698;37.460;2023-03-16T10:09:01;99142.03;;;5.82;74.34
44027;BME280;29696;55.698;37.460;2023-03-16T10:11:37;99144.53;;;5.72;74.50
44027;BME280;29696;55.698;37.460;2023-03-16T10:17:38;99134.63;;;5.76;74.72
44027;BME280;29696;55.698;37.460;2023-03-16T10:20:12;99129.25;;;5.77;74.57
44027;BME280;29696;55.698;37.460;2023-03-16T10:22:45;99136.22;;;5.89;74.77
44027;BME280;29696;55.698;37.460;2023-03-16T10:25:31;99134.59;;;6.00;74.38
44027;BME280;29696;55.698;37.460;2023-03-16T10:28:00;99141.47;;;5.89;74.01
44027;BME280;29696;55.698;37.460;2023-03-16T10:33:38;99143.66;;;6.07;74.39
44027;BME280;29696;55.698;37.460;2023-03-16T10:36:30;99135.09;;;6.05;74.36
44027;BME280;29696;55.698;37.460;2023-03-16T10:39:10;99137.69;;;5.93;74.65
44027;BME280;29696;55.698;37.460;2023-03-16T10:41:39;99144.75;;;5.69;74.23
44027;BME280;29696;55.698;37.460;2023-03-16T10:44:30;99151.56;;;5.83;75.64
44027;BME280;29696;55.698;37.460;2023-03-16T10:47:01;99138.78;;;5.67;75.45
44027;BME280;29696;55.698;37.460;2023-03-16T10:49:38;99143.69;;;5.71;75.29
44027;BME280;29696;55.698;37.460;2023-03-16T10:52:19;99147.75;;;5.76;75.35
44027;BME280;29696;55.698;37.460;2023-03-16T10:54:55;99148.81;;;5.73;75.39
44027;BME280;29696;55.698;37.460;2023-03-16T11:03:17;99144.28;;;5.75;74.65
44027;BME280;29696;55.698;37.460;2023-03-16T11:05:45;99136.53;;;5.38;74.83
44027;BME280;29696;55.698;37.460;2023-03-16T11:08:23;99153.22;;;5.37;75.57
44027;BME280;29696;55.698;37.460;2023-03-16T11:11:07;99150.59;;;5.37;75.66
44027;BME280;29696;55.698;37.460;2023-03-16T11:13:36;99152.94;;;5.29;75.88
44027;BME280;29696;55.698;37.460;2023-03-16T11:16:39;99151.09;;;5.42;76.60
44027;BME280;29696;55.698;37.460;2023-03-16T11:19:26;99152.47;;;5.35;76.74
44027;BME280;29696;55.698;37.460;2023-03-16T11:22:20;99154.44;;;5.44;76.69
44027;BME280;29696;55.698;37.460;2023-03-16T11:31:42;99146.16;;;5.62;75.14
44027;BME280;29696;55.698;37.460;2023-03-16T11:34:16;99143.34;;;5.41;74.49
44027;BME280;29696;55.698;37.460;2023-03-16T11:40:26;99157.00;;;5.57;74.22
44027;BME280;29696;55.698;37.460;2023-03-16T12:18:03;99177.47;;;5.28;75.28
44027;BME280;29696;55.698;37.460;2023-03-16T12:20:46;99175.84;;;5.38;75.51
44027;BME280;29696;55.698;37.460;2023-03-16T12:23:19;99180.91;;;5.29;75.13
44027;BME280;29696;55.698;37.460;2023-03-16T12:25:49;99176.69;;;5.15;75.42
44027;BME280;29696;55.698;37.460;2023-03-16T12:28:21;99184.34;;;5.18;75.77
44027;BME280;29696;55.698;37.460;2023-03-16T12:31:28;99184.66;;;5.37;76.41
44027;BME280;29696;55.698;37.460;2023-03-16T12:34:09;99189.38;;;5.32;75.78
44027;BME280;29696;55.698;37.460;2023-03-16T12:37:05;99191.13;;;5.44;76.06
44027;BME280;29696;55.698;37.460;2023-03-16T12:46:13;99190.16;;;5.69;75.21
44027;BME280;29696;55.698;37.460;2023-03-16T12:48:47;99199.34;;;5.75;75.16
44027;BME280;29696;55.698;37.460;2023-03-16T12:51:14;99202.34;;;5.82;75.24
44027;BME280;29696;55.698;37.460;2023-03-16T12:56:45;99211.97;;;6.05;75.19
44027;BME280;29696;55.698;37.460;2023-03-16T12:59:17;99212.22;;;6.02;75.01
44027;BME280;29696;55.698;37.460;2023-03-16T13:01:48;99213.50;;;5.97;75.05
44027;BME280;29696;55.698;37.460;2023-03-16T13:04:18;99220.53;;;5.96;75.40
44027;BME280;29696;55.698;37.460;2023-03-16T13:06:51;99208.03;;;6.00;75.61
44027;BME280;29696;55.698;37.460;2023-03-16T13:09:27;99215.75;;;6.01;75.93
44027;BME280;29696;55.698;37.460;2023-03-16T13:11:57;99215.56;;;6.04;75.58
44027;BME280;29696;55.698;37.460;2023-03-16T13:14:49;99212.72;;;6.18;75.75
44027;BME280;29696;55.698;37.460;2023-03-16T13:20:32;99210.34;;;5.91;75.64
44027;BME280;29696;55.698;37.460;2023-03-16T13:26:16;99209.19;;;5.36;77.48
44027;BME280;29696;55.698;37.460;2023-03-16T13:28:49;99210.22;;;5.10;78.54
44027;BME280;29696;55.698;37.460;2023-03-16T13:31:35;99207.38;;;5.13;79.71
44027;BME280;29696;55.698;37.460;2023-03-16T13:34:05;99197.72;;;4.89;79.94
44027;BME280;29696;55.698;37.460;2023-03-16T13:36:33;99204.66;;;4.77;80.38
44027;BME280;29696;55.698;37.460;2023-03-16T13:39:16;99203.91;;;4.75;80.66
44027;BME280;29696;55.698;37.460;2023-03-16T13:42:10;99196.69;;;4.79;81.88
44027;BME280;29696;55.698;37.460;2023-03-16T13:44:40;99200.59;;;4.61;81.87
44027;BME280;29696;55.698;37.460;2023-03-16T13:47:06;99194.94;;;4.54;82.22
44027;BME280;29696;55.698;37.460;2023-03-16T13:49:42;99203.94;;;4.63;82.40
44027;BME280;29696;55.698;37.460;2023-03-16T13:52:23;99203.53;;;4.56;82.78
44027;BME280;29696;55.698;37.460;2023-03-16T13:54:50;99206.06;;;4.45;82.52
44027;BME280;29696;55.698;37.460;2023-03-16T13:57:20;99205.31;;;4.43;82.56
44027;BME280;29696;55.698;37.460;2023-03-16T13:59:47;99205.13;;;4.33;82.31
44027;BME280;29696;55.698;37.460;2023-03-16T14:02:19;99206.59;;;4.37;83.01
44027;BME280;29696;55.698;37.460;2023-03-16T14:04:47;99205.31;;;4.30;83.46
44027;BME280;29696;55.698;37.460;2023-03-16T14:07:15;99207.72;;;4.33;83.82
44027;BME280;29696;55.698;37.460;2023-03-16T14:09:42;99211.91;;;4.35;83.97
44027;BME280;29696;55.698;37.460;2023-03-16T14:12:16;99214.03;;;4.43;83.64
44027;BME280;29696;55.698;37.460;2023-03-16T14:14:49;99207.84;;;4.44;83.44
44027;BME280;29696;55.698;37.460;2023-03-16T14:17:20;99207.31;;;4.39;83.44
44027;BME280;29696;55.698;37.460;2023-03-16T14:19:49;99201.16;;;4.40;83.56
44027;BME280;29696;55.698;37.460;2023-03-16T14:22:22;99210.03;;;4.38;83.12
44027;BME280;29696;55.698;37.460;2023-03-16T14:24:53;99199.03;;;4.32;83.64
44027;BME280;29696;55.698;37.460;2023-03-16T14:27:28;99196.75;;;4.28;83.56
44027;BME280;29696;55.698;37.460;2023-03-16T14:30:24;99210.13;;;4.36;83.79
44027;BME280;29696;55.698;37.460;2023-03-16T14:33:00;99211.19;;;4.33;84.01
44027;BME280;29696;55.698;37.460;2023-03-16T14:35:37;99206.28;;;4.29;83.71
44027;BME280;29696;55.698;37.460;2023-03-16T14:38:38;99210.97;;;4.37;83.76
44027;BME280;29696;55.698;37.460;2023-03-16T14:41:24;99210.75;;;4.27;84.04
44027;BME280;29696;55.698;37.460;2023-03-16T14:43:56;99227.63;;;4.23;84.19
44027;BME280;29696;55.698;37.460;2023-03-16T14:46:36;99230.13;;;4.24;84.05
44027;BME280;29696;55.698;37.460;2023-03-16T14:52:33;99238.91;;;4.23;84.51